Time;durP1;ratioP1;P1;durP2;ratioP2;P2;SDS_P1;SDS_P2;PMS_P1;PMS_P2;Temp;Humidity;BMP_temperature;BMP_pressure;BME280_temperature;BME280_humidity;BME280_pressure;Samples;Min_cycle;Max_cycle;Signal;HPM_P1;HPM_P2
2021/07/28 00:01:26;;;;;;;0.10;0.10;;;;;;;23.21;47.56;100021.66;5030034;28;20443;-56
2021/07/28 00:04:12;;;;;;;0.10;0.10;;;;;;;23.18;47.33;100016.66;5029515;28;20064;-56
2021/07/28 00:06:58;;;;;;;0.30;0.30;;;;;;;23.23;47.56;100029.50;5029904;28;20076;-56
2021/07/28 00:09:44;;;;;;;0.10;0.10;;;;;;;23.25;47.38;100022.16;5029471;28;20408;-57
2021/07/28 00:12:10;;;;;;;1.15;0.20;;;;;;;23.32;47.33;100026.72;5029779;28;20140;-57
2021/07/28 00:14:36;;;;;;;0.30;0.30;;;;;;;23.37;46.97;100031.53;5029255;28;20118;-56
2021/07/28 00:17:04;;;;;;;0.10;0.10;;;;;;;23.39;46.98;100031.38;5012205;28;20056;-57
2021/07/28 00:19:34;;;;;;;0.22;0.17;;;;;;;23.41;46.92;100027.59;5029184;28;20041;-56
2021/07/28 00:24:46;;;;;;;0.10;0.10;;;;;;;23.29;47.17;100018.19;5029342;28;20514;-56
2021/07/28 00:27:12;;;;;;;0.10;0.10;;;;;;;23.25;47.34;100011.50;5029611;28;20052;-55
2021/07/28 00:29:38;;;;;;;0.10;0.10;;;;;;;23.36;47.28;100028.03;5029172;28;20046;-55
2021/07/28 00:32:05;;;;;;;0.15;0.15;;;;;;;23.42;46.93;100029.25;5029773;28;20050;-56
2021/07/28 00:34:31;;;;;;;0.17;0.17;;;;;;;23.40;47.54;100027.69;5029152;28;20049;-57
2021/07/28 00:36:57;;;;;;;0.25;0.25;;;;;;;23.33;47.50;100019.53;5029578;28;20053;-54
2021/07/28 00:39:23;;;;;;;0.10;0.10;;;;;;;23.24;47.33;99999.19;5029256;28;20613;-56
2021/07/28 00:41:49;;;;;;;0.45;0.45;;;;;;;23.35;47.47;100033.53;5011676;28;20056;-56
2021/07/28 00:44:15;;;;;;;0.63;0.63;;;;;;;23.33;47.41;100019.53;5029416;28;20506;-57
2021/07/28 00:46:41;;;;;;;0.28;0.28;;;;;;;23.34;47.50;100021.19;5029175;28;20061;-56
2021/07/28 00:49:07;;;;;;;0.13;0.13;;;;;;;23.24;48.25;100013.34;5029399;28;20530;-59
2021/07/28 00:51:55;;;;;;;0.20;0.20;;;;;;;23.19;48.78;100013.00;5029102;28;20053;-55
2021/07/28 00:54:40;;;;;;;0.10;0.10;;;;;;;23.10;49.06;100007.81;5014554;28;20124;-55
2021/07/28 00:57:26;;;;;;;0.10;0.10;;;;;;;23.10;48.52;99997.16;5029367;28;20053;-57
2021/07/28 01:00:13;;;;;;;0.15;0.15;;;;;;;23.06;48.44;99985.97;5014514;28;20045;-57
2021/07/28 01:02:59;;;;;;;0.10;0.10;;;;;;;23.09;48.71;99996.31;5029546;28;20427;-57
2021/07/28 01:05:44;;;;;;;0.10;0.10;;;;;;;23.16;48.71;100004.50;5029122;28;20076;-58
2021/07/28 01:08:30;;;;;;;0.10;0.10;;;;;;;23.13;48.62;100010.16;5014657;28;20192;-58
2021/07/28 01:11:26;;;;;;;0.20;0.20;;;;;;;23.14;48.71;99998.47;5000790;28;20132;-57
2021/07/28 01:14:15;;;;;;;0.10;0.10;;;;;;;23.15;49.59;100010.81;5028967;28;20052;-56
2021/07/28 01:17:01;;;;;;;0.10;0.10;;;;;;;23.11;49.71;100002.28;5033067;28;20427;-56
2021/07/28 01:19:48;;;;;;;0.30;0.30;;;;;;;23.06;49.50;99995.78;5029877;28;20435;-57
2021/07/28 01:22:34;;;;;;;0.00;0.00;;;;;;;23.12;49.90;99997.81;5037639;28;20056;-57
2021/07/28 01:25:20;;;;;;;0.17;0.17;;;;;;;23.06;50.74;99995.78;5052738;28;20572;-57
2021/07/28 01:28:06;;;;;;;0.20;0.20;;;;;;;22.96;50.38;99987.09;5052770;28;20068;-56
2021/07/28 01:31:02;;;;;;;0.10;0.10;;;;;;;22.99;49.57;99984.94;5052399;28;20120;-55
2021/07/28 01:33:48;;;;;;;0.35;0.35;;;;;;;23.15;48.47;99984.16;5052377;28;20045;-56
2021/07/28 01:36:34;;;;;;;0.10;0.10;;;;;;;23.21;48.01;99994.16;5052121;28;20103;-56
2021/07/28 01:39:20;;;;;;;0.20;0.20;;;;;;;23.08;48.08;99991.97;5052525;28;20056;-57
2021/07/28 01:42:06;;;;;;;0.10;0.10;;;;;;;22.91;48.42;99987.56;5052544;28;20080;-56
2021/07/28 01:44:51;;;;;;;0.88;0.88;;;;;;;22.87;48.57;99983.56;5052217;28;20132;-58
2021/07/28 01:47:38;;;;;;;0.10;0.10;;;;;;;22.87;48.61;99980.91;5037340;28;20053;-58
2021/07/28 01:50:24;;;;;;;0.10;0.10;;;;;;;22.84;48.55;99976.72;5052345;28;20056;-56
2021/07/28 01:53:10;;;;;;;0.10;0.10;;;;;;;23.02;48.20;99984.63;5052245;28;20057;-59
2021/07/28 01:55:56;;;;;;;0.10;0.10;;;;;;;23.33;47.57;99980.38;5052011;28;20045;-57
2021/07/28 01:58:52;;;;;;;0.55;0.55;;;;;;;23.53;48.19;99978.28;5051951;28;20056;-57
2021/07/28 02:01:38;;;;;;;0.10;0.10;;;;;;;23.62;47.69;99966.66;5051936;28;20044;-57
2021/07/28 02:04:24;;;;;;;0.20;0.20;;;;;;;23.53;47.76;99969.47;5052035;28;20115;-57
2021/07/28 02:07:09;;;;;;;0.10;0.10;;;;;;;23.71;46.98;99968.34;5052026;28;20513;-57
2021/07/28 02:09:55;;;;;;;0.73;0.63;;;;;;;23.90;46.26;99963.66;5051750;28;20060;-58
2021/07/28 02:12:41;;;;;;;0.10;0.10;;;;;;;24.10;45.36;99959.66;5051640;28;20055;-56
2021/07/28 02:15:27;;;;;;;0.20;0.20;;;;;;;24.33;44.65;99963.34;5051836;28;20514;-56
2021/07/28 02:18:13;;;;;;;0.10;0.10;;;;;;;24.46;44.33;99960.16;5051820;28;20156;-58
2021/07/28 02:21:01;;;;;;;3.50;0.85;;;;;;;24.40;44.15;99937.66;5031582;28;20095;-57
2021/07/28 02:23:47;;;;;;;0.22;0.22;;;;;;;24.67;43.86;99947.88;5017214;28;20523;-56
2021/07/28 02:26:32;;;;;;;0.25;0.25;;;;;;;24.96;43.14;99946.50;5031317;28;20161;-56
2021/07/28 02:29:18;;;;;;;0.85;0.85;;;;;;;25.19;42.46;99953.56;5017074;28;20045;-57
2021/07/28 02:32:04;;;;;;;0.10;0.10;;;;;;;25.41;41.97;99957.28;5031841;28;20045;-55
2021/07/28 02:34:50;;;;;;;0.28;0.28;;;;;;;25.61;41.69;99953.16;5031289;28;20491;-56
2021/07/28 02:37:36;;;;;;;0.20;0.20;;;;;;;25.84;41.84;99948.66;5031020;28;20430;-58
2021/07/28 02:40:22;;;;;;;0.20;0.20;;;;;;;26.22;41.51;99951.34;5016621;28;20419;-56
2021/07/28 02:43:08;;;;;;;0.10;0.10;;;;;;;26.56;41.20;99957.03;5031376;28;20045;-55
2021/07/28 02:45:53;;;;;;;0.10;0.10;;;;;;;26.82;40.12;99945.88;5031091;28;20426;-56
2021/07/28 02:48:39;;;;;;;0.28;0.28;;;;;;;26.98;39.71;99942.13;5031019;28;20069;-55
2021/07/28 02:51:25;;;;;;;0.73;0.73;;;;;;;26.93;39.52;99946.22;5016499;28;20087;-57
2021/07/28 02:54:11;;;;;;;0.17;0.17;;;;;;;27.05;39.02;99943.06;5031156;28;20144;-57
2021/07/28 02:56:57;;;;;;;0.20;0.20;;;;;;;27.01;39.03;99939.09;5030902;28;20139;-54
2021/07/28 02:59:43;;;;;;;0.10;0.10;;;;;;;27.19;39.13;99944.88;5030859;28;20038;-55
2021/07/28 03:02:29;;;;;;;0.10;0.10;;;;;;;27.39;39.36;99951.28;5030954;28;20049;-56
2021/07/28 03:05:14;;;;;;;0.10;0.10;;;;;;;27.34;39.09;99940.31;5030940;28;20057;-55
2021/07/28 03:08:00;;;;;;;0.20;0.20;;;;;;;27.49;39.16;99938.41;5030837;28;20128;-56
2021/07/28 03:10:46;;;;;;;0.20;0.20;;;;;;;27.81;38.22;99935.22;5030356;28;20416;-54
2021/07/28 03:13:32;;;;;;;0.30;0.30;;;;;;;27.71;37.86;99929.38;5030675;28;20069;-55
2021/07/28 03:16:18;;;;;;;0.10;0.10;;;;;;;27.63;38.01;99926.81;5030860;28;20064;-56
2021/07/28 03:19:04;;;;;;;0.20;0.20;;;;;;;27.71;37.94;99931.22;5030702;28;20535;-56
2021/07/28 03:21:50;;;;;;;0.65;0.65;;;;;;;27.99;37.12;99926.72;5015511;28;20471;-57
2021/07/28 03:24:36;;;;;;;0.10;0.10;;;;;;;28.20;36.61;99925.88;5030438;28;20049;-55
2021/07/28 03:27:22;;;;;;;0.20;0.20;;;;;;;28.54;35.80;99923.19;5030569;28;20075;-54
2021/07/28 03:30:08;;;;;;;0.68;0.68;;;;;;;28.85;35.70;99928.97;5030520;28;20056;-57
2021/07/28 03:32:54;;;;;;;0.20;0.20;;;;;;;29.21;35.38;99927.88;5030077;28;20060;-56
2021/07/28 03:35:40;;;;;;;0.52;0.52;;;;;;;29.13;35.18;99918.09;5030125;28;20045;-57
2021/07/28 03:38:26;;;;;;;0.30;0.30;;;;;;;29.45;34.88;99908.47;5029869;28;20045;-56
2021/07/28 03:41:12;;;;;;;0.20;0.20;;;;;;;29.69;35.27;99921.38;5015649;28;20056;-55
2021/07/28 03:43:58;;;;;;;0.20;0.20;;;;;;;29.78;35.01;99917.44;5030173;28;20145;-58
2021/07/28 03:46:43;;;;;;;0.20;0.20;;;;;;;29.79;34.65;99915.56;5029996;28;20050;-58
2021/07/28 03:49:29;;;;;;;0.30;0.30;;;;;;;29.97;34.66;99903.16;5030491;28;20057;-58
2021/07/28 03:52:15;;;;;;;0.55;0.55;;;;;;;30.18;34.25;99909.38;5015736;28;20049;-59
2021/07/28 03:55:01;;;;;;;0.20;0.20;;;;;;;30.23;33.83;99912.28;5015241;28;20045;-56
2021/07/28 03:57:47;;;;;;;0.20;0.20;;;;;;;30.51;33.93;99910.16;5015182;28;20068;-55
2021/07/28 04:00:33;;;;;;;0.28;0.28;;;;;;;30.75;33.76;99906.78;5029677;28;20076;-58
2021/07/28 04:03:19;;;;;;;0.30;0.30;;;;;;;30.94;32.98;99911.25;5029724;28;20486;-57
2021/07/28 04:06:05;;;;;;;0.25;0.25;;;;;;;30.95;32.40;99896.78;5029617;28;20052;-56
2021/07/28 04:08:50;;;;;;;0.13;0.13;;;;;;;31.18;32.89;99903.50;5029619;28;20053;-58
2021/07/28 04:11:36;;;;;;;0.20;0.20;;;;;;;31.30;32.86;99899.91;5029661;28;20057;-57
2021/07/28 04:14:22;;;;;;;0.20;0.20;;;;;;;31.34;32.69;99900.28;5029681;28;20049;-58
2021/07/28 04:17:08;;;;;;;0.30;0.30;;;;;;;31.54;31.95;99901.03;5029755;28;20426;-57
2021/07/28 04:19:53;;;;;;;0.20;0.20;;;;;;;31.78;31.10;99905.59;5027526;28;20052;-58
2021/07/28 04:22:39;;;;;;;0.20;0.20;;;;;;;32.00;31.66;99893.34;5049688;28;20044;-57
2021/07/28 04:25:25;;;;;;;0.22;0.22;;;;;;;31.90;31.86;99884.91;5049514;28;20053;-57
2021/07/28 04:28:11;;;;;;;0.20;0.20;;;;;;;32.07;31.29;99897.91;5049554;28;20514;-58
2021/07/28 04:30:57;;;;;;;0.57;0.57;;;;;;;32.10;31.47;99873.16;5049216;28;20096;-57
2021/07/28 04:33:43;;;;;;;0.20;0.20;;;;;;;32.39;31.20;99894.88;5049288;28;20048;-58
2021/07/28 04:36:28;;;;;;;0.28;0.28;;;;;;;32.49;30.68;99888.97;5049340;28;20053;-58
2021/07/28 04:39:14;;;;;;;0.10;0.10;;;;;;;32.29;31.09;99893.75;5034508;28;20103;-58
2021/07/28 04:42:00;;;;;;;0.35;0.35;;;;;;;31.93;31.50;99895.31;5049139;28;20114;-58
2021/07/28 04:44:46;;;;;;;0.28;0.28;;;;;;;31.85;32.04;99908.25;5049118;28;20047;-58
2021/07/28 04:47:33;;;;;;;0.30;0.30;;;;;;;31.92;32.12;99895.50;5049271;28;20092;-58
2021/07/28 04:50:19;;;;;;;0.15;0.15;;;;;;;32.03;31.90;99895.59;5052796;28;20053;-58
2021/07/28 04:53:05;;;;;;;0.20;0.20;;;;;;;32.30;30.97;99880.00;5053131;28;20064;-58
2021/07/28 04:55:52;;;;;;;0.47;0.47;;;;;;;32.40;30.49;99891.13;5052991;28;20053;-58
2021/07/28 04:58:38;;;;;;;0.20;0.20;;;;;;;32.69;30.25;99889.56;5053311;28;20103;-58
2021/07/28 05:01:24;;;;;;;0.30;0.30;;;;;;;32.77;30.18;99897.38;5053223;28;20135;-58
2021/07/28 05:04:11;;;;;;;0.30;0.30;;;;;;;32.86;29.90;99900.59;5038440;28;20049;-58
2021/07/28 05:06:57;;;;;;;0.50;0.50;;;;;;;33.05;28.94;99887.88;5052842;28;20502;-57
2021/07/28 05:09:42;;;;;;;0.22;0.22;;;;;;;32.85;29.52;99886.22;5038180;28;20049;-57
2021/07/28 05:12:28;;;;;;;0.28;0.28;;;;;;;32.22;30.60;99887.56;5038254;28;20064;-57
2021/07/28 05:15:14;;;;;;;0.08;0.08;;;;;;;31.60;31.87;99891.22;5052743;28;20136;-57
2021/07/28 05:18:00;;;;;;;0.10;0.10;;;;;;;31.06;32.70;99889.03;5052674;28;20122;-57
2021/07/28 05:20:46;;;;;;;0.30;0.30;;;;;;;30.48;33.82;99916.81;5052621;28;20064;-58
2021/07/28 05:23:32;;;;;;;0.10;0.10;;;;;;;29.92;34.77;99934.44;5037894;28;20075;-57
2021/07/28 05:26:17;;;;;;;0.10;0.10;;;;;;;29.34;36.48;99922.56;5037725;28;20407;-56
2021/07/28 05:29:03;;;;;;;0.10;0.10;;;;;;;28.90;37.45;99941.81;5052545;28;20511;-57
2021/07/28 05:31:29;;;;;;;0.17;0.17;;;;;;;28.56;37.99;99937.28;5052698;28;20045;-57
2021/07/28 05:33:56;;;;;;;0.30;0.30;;;;;;;28.18;38.73;99930.59;5052257;28;20064;-57
2021/07/28 05:36:22;;;;;;;0.00;0.00;;;;;;;27.97;39.45;99944.03;5051179;28;20460;-56
2021/07/28 05:38:48;;;;;;;0.10;0.10;;;;;;;27.78;39.83;99932.13;5052192;28;20060;-55
2021/07/28 05:41:14;;;;;;;0.98;0.98;;;;;;;27.63;39.82;99937.53;5052320;28;20040;-57
2021/07/28 05:43:39;;;;;;;1.60;0.63;;;;;;;27.46;40.41;99943.34;5052370;28;20048;-56
2021/07/28 05:46:05;;;;;;;0.10;0.10;;;;;;;27.26;40.71;99929.69;5052048;28;20601;-59
2021/07/28 05:48:32;;;;;;;0.10;0.10;;;;;;;27.13;41.02;99935.72;5052408;28;20057;-56
2021/07/28 05:50:59;;;;;;;0.10;0.10;;;;;;;27.01;41.51;99941.75;5052098;28;20045;-57
2021/07/28 05:53:25;;;;;;;0.30;0.30;;;;;;;26.94;41.50;99941.69;5052252;28;20139;-59
2021/07/28 05:55:53;;;;;;;0.93;0.17;;;;;;;26.86;41.70;99939.13;5033859;28;20048;-59
2021/07/28 05:58:20;;;;;;;0.45;0.45;;;;;;;26.73;42.35;99939.72;5052146;28;20056;-58
2021/07/28 06:00:47;;;;;;;0.20;0.20;;;;;;;26.64;42.75;99940.00;5051474;28;20045;-58
2021/07/28 06:03:13;;;;;;;0.68;0.68;;;;;;;26.55;43.60;99946.47;5052118;28;20065;-58
2021/07/28 06:05:39;;;;;;;0.10;0.10;;;;;;;26.48;43.55;99930.31;5051879;28;20045;-58
2021/07/28 06:08:05;;;;;;;0.57;0.57;;;;;;;26.41;44.13;99940.94;5051648;28;20049;-57
2021/07/28 06:10:31;;;;;;;0.20;0.20;;;;;;;26.25;44.37;99918.84;5051869;28;20072;-59
2021/07/28 06:12:59;;;;;;;0.68;0.68;;;;;;;26.31;45.14;99942.19;5051586;28;20083;-57
2021/07/28 06:15:25;;;;;;;0.30;0.30;;;;;;;26.17;45.28;99937.69;5051702;28;20040;-59
2021/07/28 06:17:51;;;;;;;0.10;0.10;;;;;;;26.08;45.51;99944.09;5051747;28;20063;-59
2021/07/28 06:20:19;;;;;;;0.10;0.10;;;;;;;26.12;45.46;99942.69;5033795;28;20045;-59
2021/07/28 06:22:45;;;;;;;0.13;0.13;;;;;;;26.08;45.43;99941.41;5051789;28;20057;-58
2021/07/28 06:25:12;;;;;;;0.10;0.10;;;;;;;26.09;45.57;99946.56;5051245;28;20069;-59
2021/07/28 06:27:37;;;;;;;0.00;0.00;;;;;;;26.06;45.33;99946.09;5033842;28;20127;-59
2021/07/28 06:30:04;;;;;;;0.00;0.00;;;;;;;26.02;45.54;99942.13;5051453;28;20132;-59
2021/07/28 06:32:30;;;;;;;0.10;0.10;;;;;;;26.00;45.88;99950.34;5051526;28;20068;-58
2021/07/28 06:34:56;;;;;;;0.10;0.10;;;;;;;25.94;46.22;99958.25;5051158;28;20522;-59
2021/07/28 06:37:21;;;;;;;0.10;0.10;;;;;;;25.89;46.43;99951.59;5051672;28;20056;-59
2021/07/28 06:39:48;;;;;;;0.10;0.10;;;;;;;25.78;46.38;99935.16;5051531;28;20063;-58
2021/07/28 06:42:14;;;;;;;0.20;0.20;;;;;;;25.83;46.75;99951.47;5051076;28;20134;-59
2021/07/28 06:44:41;;;;;;;0.10;0.10;;;;;;;25.85;46.80;99963.66;5033174;28;20049;-59
2021/07/28 06:47:08;;;;;;;0.00;0.00;;;;;;;25.90;46.56;99963.13;5050849;28;20045;-59
2021/07/28 06:49:34;;;;;;;0.20;0.20;;;;;;;25.97;46.55;99961.41;5050992;28;20049;-58
2021/07/28 06:51:59;;;;;;;0.00;0.00;;;;;;;25.99;46.24;99955.88;5050901;28;20102;-59
2021/07/28 06:54:25;;;;;;;0.10;0.10;;;;;;;25.99;46.65;99961.22;5051018;28;20045;-59
2021/07/28 06:56:52;;;;;;;0.10;0.10;;;;;;;25.98;46.50;99965.72;5050811;28;20064;-59
2021/07/28 06:59:18;;;;;;;0.10;0.10;;;;;;;26.01;46.25;99965.41;5050942;28;20426;-59
2021/07/28 07:01:45;;;;;;;0.10;0.10;;;;;;;26.04;46.36;99959.69;5050988;28;20056;-59
2021/07/28 07:04:11;;;;;;;0.00;0.00;;;;;;;25.97;47.03;99949.88;5050765;28;20104;-59
2021/07/28 07:06:37;;;;;;;0.32;0.32;;;;;;;25.91;47.52;99948.75;5050877;28;20053;-58
2021/07/28 07:09:03;;;;;;;0.10;0.10;;;;;;;25.82;48.22;99958.69;5049507;28;20041;-58
2021/07/28 07:11:29;;;;;;;0.10;0.10;;;;;;;25.81;48.14;99961.53;5050665;28;20047;-59
2021/07/28 07:13:56;;;;;;;0.00;0.00;;;;;;;25.82;48.12;99955.16;5049561;28;20053;-59
2021/07/28 07:16:23;;;;;;;0.10;0.10;;;;;;;25.94;47.98;99958.25;5050438;28;20529;-59
2021/07/28 07:18:49;;;;;;;0.20;0.20;;;;;;;26.08;47.86;99944.09;5029388;28;20135;-57
2021/07/28 07:21:15;;;;;;;0.00;0.00;;;;;;;26.17;47.43;99940.34;5029103;28;20049;-59
2021/07/28 07:23:41;;;;;;;0.20;0.20;;;;;;;26.16;47.28;99934.16;5030642;28;20426;-58
2021/07/28 07:26:07;;;;;;;0.10;0.10;;;;;;;26.19;47.42;99935.63;5030451;28;20574;-58
2021/07/28 07:28:34;;;;;;;0.35;0.35;;;;;;;26.30;46.73;99937.88;5030541;28;20507;-58
2021/07/28 07:31:01;;;;;;;1.00;0.73;;;;;;;26.40;46.90;99933.09;5030182;28;20541;-59
2021/07/28 07:33:40;;;;;;;0.10;0.10;;;;;;;26.41;46.56;99924.03;5030385;28;20100;-58
2021/07/28 07:36:11;;;;;;;0.10;0.10;;;;;;;26.52;46.34;99936.97;5030091;28;20127;-59
2021/07/28 07:38:37;;;;;;;0.00;0.00;;;;;;;26.53;46.33;99941.31;5030435;28;20053;-59
2021/07/28 07:41:06;;;;;;;0.10;0.10;;;;;;;26.48;46.52;99941.03;5030026;28;20049;-59
2021/07/28 07:43:33;;;;;;;0.10;0.10;;;;;;;26.49;46.54;99933.81;5030380;28;20068;-59
2021/07/28 07:45:59;;;;;;;0.10;0.10;;;;;;;26.40;47.57;99927.75;5030074;28;20081;-59
2021/07/28 07:48:25;;;;;;;0.30;0.30;;;;;;;26.43;47.90;99940.75;5030272;28;20091;-59
2021/07/28 07:50:52;;;;;;;0.10;0.10;;;;;;;26.41;47.60;99927.53;5030090;28;20049;-57
2021/07/28 07:53:17;;;;;;;0.10;0.10;;;;;;;26.48;47.60;99934.81;5029921;28;20053;-59
2021/07/28 07:55:44;;;;;;;0.10;0.10;;;;;;;26.48;47.67;99935.66;5028708;28;20053;-57
2021/07/28 07:58:10;;;;;;;0.10;0.10;;;;;;;26.42;48.27;99925.69;5029930;28;20049;-58
2021/07/28 08:00:36;;;;;;;0.10;0.10;;;;;;;26.45;47.83;99919.97;5029851;28;20037;-58
2021/07/28 08:03:02;;;;;;;0.10;0.10;;;;;;;26.57;47.21;99915.00;5028560;28;20059;-58
2021/07/28 08:05:28;;;;;;;0.10;0.10;;;;;;;26.54;47.86;99929.56;5029918;28;20041;-58
2021/07/28 08:07:54;;;;;;;0.20;0.20;;;;;;;26.48;47.61;99924.94;5029771;28;20073;-58
2021/07/28 08:10:20;;;;;;;0.20;0.20;;;;;;;26.39;47.83;99913.50;5029726;28;20076;-58
2021/07/28 08:12:46;;;;;;;0.17;0.17;;;;;;;26.36;47.93;99923.75;5029642;28;20589;-58
2021/07/28 08:15:12;;;;;;;0.00;0.00;;;;;;;26.32;48.06;99919.78;5029598;28;20060;-58
2021/07/28 08:17:38;;;;;;;0.10;0.10;;;;;;;26.29;48.32;99920.16;5029656;28;20080;-59
2021/07/28 08:20:06;;;;;;;0.00;0.00;;;;;;;26.24;48.67;99918.00;5029429;28;20103;-59
2021/07/28 08:22:32;;;;;;;0.10;0.10;;;;;;;26.28;48.54;99921.16;5028246;28;20052;-57
2021/07/28 08:24:58;;;;;;;0.52;0.52;;;;;;;26.37;48.29;99925.44;5029073;28;20056;-59
2021/07/28 08:27:26;;;;;;;0.10;0.10;;;;;;;26.42;48.38;99912.31;5029541;28;20099;-58
2021/07/28 08:29:52;;;;;;;0.00;0.00;;;;;;;26.52;48.59;99917.38;5011983;28;20477;-58
2021/07/28 08:32:18;;;;;;;0.10;0.10;;;;;;;26.53;48.28;99911.84;5011543;28;20072;-59
2021/07/28 08:35:04;;;;;;;0.10;0.10;;;;;;;26.59;48.24;99908.44;5001110;28;20132;-59
2021/07/28 08:37:31;;;;;;;0.20;0.20;;;;;;;26.55;48.63;99909.81;5029379;28;20042;-60
2021/07/28 08:39:57;;;;;;;0.22;0.22;;;;;;;26.50;48.62;99912.22;5029491;28;20046;-59
2021/07/28 08:42:23;;;;;;;0.00;0.00;;;;;;;26.44;48.84;99912.94;5029448;28;20057;-59
2021/07/28 08:44:49;;;;;;;0.00;0.00;;;;;;;26.44;48.93;99904.09;5012106;28;20045;-60
2021/07/28 08:47:17;;;;;;;0.20;0.20;;;;;;;26.40;49.37;99900.97;5029046;28;20123;-59
2021/07/28 08:49:43;;;;;;;0.13;0.13;;;;;;;26.49;48.97;99901.69;5011492;28;20056;-60
2021/07/28 08:52:10;;;;;;;0.10;0.10;;;;;;;26.56;49.40;99905.28;5029048;28;20049;-60
2021/07/28 08:54:36;;;;;;;0.10;0.10;;;;;;;26.63;49.06;99909.72;5029461;28;20053;-59
2021/07/28 08:57:02;;;;;;;0.20;0.20;;;;;;;26.67;49.00;99902.97;5029037;28;20439;-59
2021/07/28 08:59:32;;;;;;;0.00;0.00;;;;;;;26.68;48.84;99896.59;5011731;28;20041;-59
2021/07/28 09:01:58;;;;;;;;;;;;;;;26.77;48.58;99897.31;5012312;28;20041;-59
2021/07/28 09:04:24;;;;;;;0.05;0.05;;;;;;;26.80;48.53;99889.72;5029291;28;20413;-58
2021/07/28 09:06:50;;;;;;;0.10;0.10;;;;;;;26.93;47.84;99887.25;4995246;28;20054;-59
2021/07/28 09:09:16;;;;;;;0.10;0.10;;;;;;;27.00;47.31;99891.84;5028918;28;20188;-59
2021/07/28 09:11:56;;;;;;;0.10;0.10;;;;;;;27.05;47.81;99892.13;5028954;28;20053;-59
2021/07/28 09:14:24;;;;;;;0.00;0.00;;;;;;;27.04;47.37;99903.84;5011071;28;20132;-59
2021/07/28 09:16:53;;;;;;;0.10;0.10;;;;;;;26.95;47.60;99895.09;5029232;28;20046;-59
2021/07/28 09:19:41;;;;;;;0.10;0.10;;;;;;;27.01;48.31;99909.59;5028789;28;20119;-60
2021/07/28 09:22:08;;;;;;;0.10;0.10;;;;;;;26.95;48.50;99911.19;5028886;28;20056;-60
2021/07/28 09:24:34;;;;;;;0.10;0.10;;;;;;;26.93;48.97;99922.09;5029228;28;20519;-60
2021/07/28 09:27:00;;;;;;;0.10;0.10;;;;;;;26.89;49.03;99914.63;5028808;28;20080;-60
2021/07/28 09:29:28;;;;;;;0.17;0.17;;;;;;;26.91;49.23;99913.41;5011358;28;20534;-60
2021/07/28 09:31:55;;;;;;;0.00;0.00;;;;;;;26.93;49.85;99922.09;5011225;28;20045;-60
2021/07/28 09:34:21;;;;;;;0.10;0.10;;;;;;;26.90;50.02;99925.13;5011009;28;20084;-60
2021/07/28 09:36:54;;;;;;;0.00;0.00;;;;;;;26.91;49.46;99923.28;5031306;28;20038;-59
2021/07/28 09:39:36;;;;;;;0.10;0.10;;;;;;;27.00;48.95;99924.84;5032489;28;20037;-59
2021/07/28 09:42:15;;;;;;;0.10;0.10;;;;;;;27.10;47.76;99906.63;5032335;28;20049;-59
2021/07/28 09:44:42;;;;;;;0.10;0.10;;;;;;;27.23;47.63;99911.28;5032467;28;20081;-59
2021/07/28 09:47:12;;;;;;;0.10;0.10;;;;;;;27.28;47.24;99907.03;5032126;28;20143;-59
2021/07/28 09:49:41;;;;;;;0.00;0.00;;;;;;;27.30;47.11;99898.78;5032490;28;20152;-59
2021/07/28 09:52:33;;;;;;;0.10;0.10;;;;;;;27.41;47.19;99900.97;5014876;28;20473;-59
2021/07/28 09:54:58;;;;;;;0.13;0.13;;;;;;;27.38;46.99;99891.47;5032285;28;20140;-59
2021/07/28 09:57:26;;;;;;;0.10;0.10;;;;;;;27.43;47.61;99896.25;5014093;28;20049;-58
2021/07/28 10:00:08;;;;;;;0.00;0.00;;;;;;;27.26;47.71;99876.03;5032305;28;20049;-58
2021/07/28 10:03:00;;;;;;;0.10;0.10;;;;;;;27.40;47.49;99904.66;5017376;28;20419;-58
2021/07/28 10:05:26;;;;;;;0.10;0.10;;;;;;;27.28;47.81;99885.59;5031934;28;20473;-59
2021/07/28 10:07:51;;;;;;;0.13;0.13;;;;;;;27.37;47.71;99889.78;5032049;28;20534;-59
2021/07/28 10:10:20;;;;;;;0.20;0.20;;;;;;;27.38;47.50;99890.63;4997796;28;20069;-59
2021/07/28 10:12:48;;;;;;;0.10;0.10;;;;;;;27.35;47.49;99897.22;5031818;28;20048;-58
2021/07/28 10:15:14;;;;;;;0.10;0.10;;;;;;;27.34;47.16;99883.97;5031782;28;20326;-59
2021/07/28 10:17:41;;;;;;;0.10;0.10;;;;;;;27.32;47.15;99881.47;5031901;28;20718;-59
2021/07/28 10:20:11;;;;;;;0.10;0.10;;;;;;;27.36;47.23;99879.25;5031598;28;20084;-60
2021/07/28 10:22:37;;;;;;;0.10;0.10;;;;;;;27.35;46.87;99882.97;5031678;28;20046;-59
2021/07/28 10:25:07;;;;;;;0.00;0.00;;;;;;;27.30;46.89;99882.69;5013810;28;20049;-59
2021/07/28 10:27:37;;;;;;;;;;;;;;;27.27;46.85;99883.06;5032069;28;20223;-59
2021/07/28 10:30:04;;;;;;;0.10;0.10;;;;;;;27.21;46.57;99884.69;5031741;28;20509;-58
2021/07/28 10:32:33;;;;;;;0.32;0.32;;;;;;;27.19;46.88;99883.22;5013831;28;20506;-59
2021/07/28 10:35:24;;;;;;;0.10;0.10;;;;;;;27.13;46.91;99862.50;5031511;28;20060;-58
2021/07/28 10:37:51;;;;;;;0.13;0.13;;;;;;;26.95;47.13;99865.63;5014230;28;20060;-58
2021/07/28 10:40:24;;;;;;;0.30;0.30;;;;;;;26.87;47.44;99865.72;5013634;28;20072;-59
2021/07/28 10:42:49;;;;;;;0.30;0.30;;;;;;;26.85;47.43;99862.41;5031336;28;20132;-58
2021/07/28 10:45:17;;;;;;;0.10;0.10;;;;;;;26.83;47.00;99835.78;5031071;28;20129;-59
2021/07/28 10:47:45;;;;;;;0.10;0.10;;;;;;;26.91;47.20;99846.41;5031169;28;20064;-59
2021/07/28 10:50:26;;;;;;;0.20;0.20;;;;;;;26.66;47.54;99846.91;5029859;28;20449;-59
2021/07/28 10:52:52;;;;;;;0.10;0.10;;;;;;;26.32;49.36;99839.44;5013400;28;20459;-59
2021/07/28 10:55:30;;;;;;;0.00;0.00;;;;;;;26.24;49.72;99842.25;5030880;28;20060;-59
2021/07/28 10:58:11;;;;;;;0.03;0.03;;;;;;;26.32;48.56;99816.19;5030984;28;20045;-59
2021/07/28 11:00:38;;;;;;;0.00;0.00;;;;;;;26.58;47.99;99833.59;5013343;28;20049;-60
2021/07/28 11:03:14;;;;;;;0.10;0.10;;;;;;;26.47;48.58;99836.78;5030942;28;20076;-59
2021/07/28 11:05:40;;;;;;;0.10;0.10;;;;;;;26.28;49.13;99839.00;5030910;28;20190;-59
2021/07/28 11:08:09;;;;;;;0.10;0.10;;;;;;;26.26;48.94;99837.53;5029426;28;20144;-60
2021/07/28 11:10:46;;;;;;;0.13;0.13;;;;;;;26.38;48.37;99838.69;5030915;28;20088;-59
2021/07/28 11:13:16;;;;;;;0.10;0.10;;;;;;;26.65;47.22;99834.53;5030615;28;20061;-59
2021/07/28 11:15:49;;;;;;;;;;;;;;;26.69;47.62;99825.94;5031101;28;20042;-59
2021/07/28 11:18:16;;;;;;;0.10;0.10;;;;;;;26.64;48.61;99840.88;5030440;28;19975;-59
2021/07/28 11:20:42;;;;;;;0.10;0.10;;;;;;;26.51;49.08;99828.16;5030501;28;20053;-59
2021/07/28 11:23:20;;;;;;;0.00;0.00;;;;;;;26.26;50.42;99826.81;5030435;28;20092;-60
2021/07/28 11:25:48;;;;;;;0.00;0.00;;;;;;;26.20;50.48;99811.50;5030625;28;20080;-59
2021/07/28 11:28:17;;;;;;;0.10;0.10;;;;;;;25.82;52.14;99805.34;5030215;28;20526;-59
2021/07/28 11:30:43;;;;;;;0.10;0.10;;;;;;;25.88;51.98;99804.63;5030403;28;20096;-59
2021/07/28 11:33:14;;;;;;;0.00;0.00;;;;;;;25.88;51.85;99783.22;5029902;28;20608;-59
2021/07/28 11:35:43;;;;;;;0.10;0.10;;;;;;;26.07;51.45;99792.53;5012666;28;20124;-58
2021/07/28 11:38:16;;;;;;;0.17;0.17;;;;;;;25.98;51.58;99781.09;5029894;28;20068;-59
2021/07/28 11:40:45;;;;;;;0.10;0.10;;;;;;;26.03;51.50;99785.88;5030071;28;20041;-59
2021/07/28 11:43:20;;;;;;;0.13;0.13;;;;;;;26.20;50.56;99788.25;5030172;28;20166;-59
2021/07/28 11:45:47;;;;;;;0.25;0.25;;;;;;;26.37;50.13;99768.25;5012532;28;20053;-59
2021/07/28 11:48:31;;;;;;;0.10;0.10;;;;;;;26.55;49.57;99775.88;5012270;28;20068;-58
2021/07/28 11:50:58;;;;;;;0.10;0.10;;;;;;;26.52;49.88;99781.63;5030083;28;20049;-58
2021/07/28 11:53:27;;;;;;;0.10;0.10;;;;;;;26.59;49.14;99787.88;5029688;28;20081;-57
2021/07/28 11:55:54;;;;;;;0.20;0.20;;;;;;;26.71;48.77;99781.00;5030006;28;20057;-58
2021/07/28 11:58:21;;;;;;;0.10;0.10;;;;;;;26.75;48.71;99749.31;5029053;28;20302;-57
2021/07/28 12:00:48;;;;;;;0.10;0.10;;;;;;;26.71;48.34;99764.94;5012359;28;20049;-59
2021/07/28 12:03:27;;;;;;;0.28;0.28;;;;;;;26.91;48.20;99775.91;5029388;28;20068;-60
2021/07/28 12:06:04;;;;;;;0.15;0.15;;;;;;;26.93;47.92;99777.34;5030137;28;20128;-57
2021/07/28 12:08:31;;;;;;;0.10;0.10;;;;;;;26.95;48.01;99776.34;5029837;28;20511;-59
2021/07/28 12:11:10;;;;;;;0.10;0.10;;;;;;;27.01;47.73;99775.56;5029626;28;20142;-58
2021/07/28 12:13:42;;;;;;;0.10;0.10;;;;;;;27.03;47.63;99763.63;5011989;28;20053;-59